Anzoras — EAZC — position and weather

sailwx.info

Track history (hours):
 
Tides and Currents Weather Stations Pressure Air Temp Water Temp Dewpoint Dewpoint Depression Visibility Wind Speed Wind Dir Waves Ship Positions

Anzoras

Last reported at 2015-Jul-01 15:08 UTC. Time now 2015-Jul-01 19:18 UTC.
Position N 37°13' E 005°08'.

Length 100 m; draft 6 m.

Type: Cargo ship. MMSI: 224376000.

Date/timePositionNaut miles runAvg speedWind from/ knotsBaromVisibWave heightAir tempDewpointWater temp
2015-Jul-01 15:08N 37°13' E 005°08'21811.7
2015-Jun-30 20:29N 37°39' E 009°40'1511.1
2015-Jun-30 19:07N 37°39' E 009°60'711.2
2015-Jun-30 18:30N 37°39' E 010°08'1311.2
2015-Jun-30 17:21N 37°40' E 010°24'910.9
2015-Jun-30 16:31N 37°40' E 010°36'1111.5
2015-Jun-30 15:33N 37°40' E 010°50'1211.6
2015-Jun-30 14:31N 37°41' E 011°05'1111.7
2015-Jun-30 13:33N 37°41' E 011°19'1212.0
2015-Jun-30 12:33N 37°41' E 011°35'1212.0
2015-Jun-30 11:33N 37°39' E 011°49'1212.0
2015-Jun-30 10:33N 37°38' E 012°05'1110.9
2015-Jun-30 09:33N 37°34' E 012°17'1111.0
2015-Jun-30 08:33N 37°29' E 012°30'1411.7
2015-Jun-30 07:21N 37°23' E 012°46'911.7
2015-Jun-30 06:32N 37°19' E 012°57'1211.8
2015-Jun-30 05:30N 37°14' E 013°11'1511.4
2015-Jun-30 04:12N 37°07' E 013°27'711.2
2015-Jun-30 03:33N 37°04' E 013°35'1111.4
2015-Jun-30 02:33N 36°59' E 013°48'1212.0
2015-Jun-30 01:33N 36°53' E 014°01'1212.2
2015-Jun-30 00:33N 36°47' E 014°15'1211.9
2015-Jun-29 23:33N 36°42' E 014°28'1211.7
2015-Jun-29 22:33N 36°37' E 014°41'1211.5
2015-Jun-29 21:33N 36°32' E 014°54'1211.6
2015-Jun-29 20:33N 36°29' E 015°08'1111.4
2015-Jun-29 19:33N 36°29' E 015°22'  
2015-Jun-26 19:22N 41°22' E 029°21'  
Track history (hours):
 
Tides and Currents Weather Stations Pressure Air Temp Water Temp Dewpoint Dewpoint Depression Visibility Wind Speed Wind Dir Waves Ship Positions

Anzoras

Last reported at 2015-Jul-01 15:08 UTC. Time now 2015-Jul-01 19:18 UTC.
Position N 37°13' E 005°08'.

Length 100 m; draft 6 m.

Type: Cargo ship. MMSI: 224376000.

Date/timePositionNaut miles runAvg speedWind from/ knotsBaromVisibWave heightAir tempDewpointWater temp
2015-Jul-01 15:08N 37°13' E 005°08'21811.7
2015-Jun-30 20:29N 37°39' E 009°40'1511.1
2015-Jun-30 19:07N 37°39' E 009°60'711.2
2015-Jun-30 18:30N 37°39' E 010°08'1311.2
2015-Jun-30 17:21N 37°40' E 010°24'910.9
2015-Jun-30 16:31N 37°40' E 010°36'1111.5
2015-Jun-30 15:33N 37°40' E 010°50'1211.6
2015-Jun-30 14:31N 37°41' E 011°05'1111.7
2015-Jun-30 13:33N 37°41' E 011°19'1212.0
2015-Jun-30 12:33N 37°41' E 011°35'1212.0
2015-Jun-30 11:33N 37°39' E 011°49'1212.0
2015-Jun-30 10:33N 37°38' E 012°05'1110.9
2015-Jun-30 09:33N 37°34' E 012°17'1111.0
2015-Jun-30 08:33N 37°29' E 012°30'1411.7
2015-Jun-30 07:21N 37°23' E 012°46'911.7
2015-Jun-30 06:32N 37°19' E 012°57'1211.8
2015-Jun-30 05:30N 37°14' E 013°11'1511.4
2015-Jun-30 04:12N 37°07' E 013°27'711.2
2015-Jun-30 03:33N 37°04' E 013°35'1111.4
2015-Jun-30 02:33N 36°59' E 013°48'1212.0
2015-Jun-30 01:33N 36°53' E 014°01'1212.2
2015-Jun-30 00:33N 36°47' E 014°15'1211.9
2015-Jun-29 23:33N 36°42' E 014°28'1211.7
2015-Jun-29 22:33N 36°37' E 014°41'1211.5
2015-Jun-29 21:33N 36°32' E 014°54'1211.6
2015-Jun-29 20:33N 36°29' E 015°08'1111.4
2015-Jun-29 19:33N 36°29' E 015°22'  
2015-Jun-26 19:22N 41°22' E 029°21'  

Dump ship's entire track history